createdAt,value
2022-12-07T00:01:23.346Z,2.70
2022-12-07T00:03:52.745Z,2.70
2022-12-07T00:06:20.810Z,2.60
2022-12-07T00:08:49.031Z,2.60
2022-12-07T00:11:19.193Z,2.70
2022-12-07T00:13:47.272Z,2.70
2022-12-07T00:16:16.564Z,2.70
2022-12-07T00:18:44.274Z,2.70
2022-12-07T00:21:16.811Z,2.70
2022-12-07T00:23:45.611Z,2.70
2022-12-07T00:26:24.074Z,2.70
2022-12-07T00:29:02.744Z,2.70
2022-12-07T00:31:34.405Z,2.70
2022-12-07T00:34:01.751Z,2.70
2022-12-07T00:36:29.242Z,2.60
2022-12-07T00:38:58.437Z,2.60
2022-12-07T00:41:27.596Z,2.60
2022-12-07T00:43:55.235Z,2.60
2022-12-07T00:46:23.158Z,2.60
2022-12-07T00:48:51.429Z,2.70
2022-12-07T00:51:21.245Z,2.70
2022-12-07T00:53:48.567Z,2.70
2022-12-07T00:56:21.681Z,2.70
2022-12-07T00:59:00.377Z,2.70
2022-12-07T01:01:30.121Z,2.70
2022-12-07T01:03:57.214Z,2.70
2022-12-07T01:06:25.528Z,2.70
2022-12-07T01:08:52.862Z,2.70
2022-12-07T01:11:22.600Z,2.70
2022-12-07T01:13:52.284Z,2.70
2022-12-07T01:16:20.626Z,2.70
2022-12-07T01:18:50.252Z,2.60
2022-12-07T01:21:21.917Z,2.70
2022-12-07T01:23:49.714Z,2.70
2022-12-07T01:26:20.852Z,2.70
2022-12-07T01:28:48.196Z,2.70
2022-12-07T01:31:21.369Z,2.70
2022-12-07T01:33:51.945Z,2.70
2022-12-07T01:36:27.256Z,2.70
2022-12-07T01:39:03.470Z,2.70
2022-12-07T01:41:33.871Z,2.70
2022-12-07T01:44:24.937Z,2.70
2022-12-07T01:47:03.238Z,2.70
2022-12-07T01:49:44.266Z,2.70
2022-12-07T01:52:24.030Z,2.70
2022-12-07T01:54:56.175Z,2.70
2022-12-07T01:57:24.024Z,2.70
2022-12-07T01:59:52.742Z,2.70
2022-12-07T02:02:39.033Z,2.70
2022-12-07T02:05:07.546Z,2.70
2022-12-07T02:07:38.131Z,2.70
2022-12-07T02:10:19.554Z,2.70
2022-12-07T02:12:50.703Z,2.70
2022-12-07T02:15:19.586Z,2.70
2022-12-07T02:18:31.347Z,2.70
2022-12-07T02:21:29.240Z,2.80
2022-12-07T02:24:36.787Z,2.70
2022-12-07T02:27:39.361Z,2.70
2022-12-07T02:30:12.643Z,2.70
2022-12-07T02:33:00.220Z,2.70
2022-12-07T02:35:45.521Z,2.70
2022-12-07T02:38:38.648Z,2.70
2022-12-07T02:41:17.330Z,2.70
2022-12-07T02:43:52.829Z,2.70
2022-12-07T02:46:40.908Z,2.80
2022-12-07T02:49:09.025Z,2.90
2022-12-07T02:51:42.034Z,2.80
2022-12-07T02:54:19.232Z,2.80
2022-12-07T02:56:57.646Z,2.80
2022-12-07T03:00:09.741Z,2.70
2022-12-07T03:03:03.520Z,2.80
2022-12-07T03:05:48.795Z,2.80
2022-12-07T03:09:04.209Z,2.80
2022-12-07T03:11:45.871Z,2.90
2022-12-07T03:14:25.777Z,2.80
2022-12-07T03:17:27.179Z,2.80
2022-12-07T03:19:59.294Z,2.90
2022-12-07T03:22:30.450Z,3.00
2022-12-07T03:25:06.171Z,2.90
2022-12-07T03:27:42.530Z,2.90
2022-12-07T03:30:35.751Z,2.90
2022-12-07T03:33:12.545Z,3.00
2022-12-07T03:35:48.927Z,2.90
2022-12-07T03:38:42.525Z,3.00
2022-12-07T03:41:26.033Z,3.00
2022-12-07T03:43:55.798Z,3.00
2022-12-07T03:46:54.718Z,3.00
2022-12-07T03:49:54.505Z,2.90
2022-12-07T03:52:41.977Z,3.00
2022-12-07T03:55:26.119Z,3.00
2022-12-07T03:57:57.258Z,3.10
2022-12-07T04:00:24.696Z,3.10
2022-12-07T04:02:56.182Z,3.10
2022-12-07T04:05:24.318Z,3.10
2022-12-07T04:07:51.410Z,3.10
2022-12-07T04:10:19.466Z,3.10
2022-12-07T04:12:46.587Z,3.10
2022-12-07T04:15:13.930Z,3.00
2022-12-07T04:17:41.010Z,3.00
2022-12-07T04:20:09.300Z,3.00
2022-12-07T04:22:36.356Z,3.00
2022-12-07T04:25:03.609Z,3.10
2022-12-07T04:27:30.632Z,3.10
2022-12-07T04:29:57.717Z,3.00
2022-12-07T04:32:25.443Z,3.00
2022-12-07T04:34:55.557Z,3.00
2022-12-07T04:37:23.613Z,3.00
2022-12-07T04:39:51.044Z,3.00
2022-12-07T04:42:18.305Z,3.00
2022-12-07T04:44:45.754Z,3.00
2022-12-07T04:47:13.093Z,3.10
2022-12-07T04:49:40.221Z,3.00
2022-12-07T04:52:07.330Z,3.10
2022-12-07T04:54:34.384Z,3.00
2022-12-07T04:57:01.441Z,3.00
2022-12-07T04:59:28.506Z,3.00
2022-12-07T05:01:55.641Z,3.00
2022-12-07T05:04:22.803Z,3.00
2022-12-07T05:06:49.876Z,3.00
2022-12-07T05:09:16.893Z,3.00
2022-12-07T05:11:44.406Z,3.00
2022-12-07T05:14:21.709Z,3.00
2022-12-07T05:16:51.517Z,2.90
2022-12-07T05:19:20.148Z,3.00
2022-12-07T05:21:47.564Z,2.90
2022-12-07T05:24:16.679Z,2.90
2022-12-07T05:26:44.251Z,2.90
2022-12-07T05:29:14.292Z,3.00
2022-12-07T05:31:41.597Z,3.00
2022-12-07T05:34:08.824Z,2.90
2022-12-07T05:36:35.979Z,3.00
2022-12-07T05:39:03.214Z,3.00
2022-12-07T05:41:48.645Z,3.00
2022-12-07T05:44:16.128Z,3.10
2022-12-07T05:46:43.354Z,3.10
2022-12-07T05:49:10.440Z,3.10
2022-12-07T05:51:37.551Z,3.20
2022-12-07T05:54:04.693Z,3.10
2022-12-07T05:56:31.730Z,3.10
2022-12-07T05:59:17.339Z,3.20
2022-12-07T06:01:44.522Z,3.10
2022-12-07T06:04:11.655Z,3.10
2022-12-07T06:06:38.983Z,3.20
2022-12-07T06:09:06.269Z,3.20
2022-12-07T06:11:52.060Z,3.20
2022-12-07T06:14:19.183Z,3.10
2022-12-07T06:16:46.550Z,3.10
2022-12-07T06:19:13.739Z,3.10
2022-12-07T06:21:40.861Z,3.20
2022-12-07T06:24:08.200Z,3.20
2022-12-07T06:26:35.270Z,3.20
2022-12-07T06:29:02.351Z,3.20
2022-12-07T06:31:29.694Z,3.20
2022-12-07T06:34:01.113Z,3.20
2022-12-07T06:36:28.587Z,3.20
2022-12-07T06:38:55.818Z,3.20
2022-12-07T06:41:23.303Z,3.20
2022-12-07T06:43:55.819Z,3.30
2022-12-07T06:46:24.491Z,3.20
2022-12-07T06:48:51.690Z,3.00
2022-12-07T06:51:18.862Z,3.10
2022-12-07T06:53:45.919Z,3.10
2022-12-07T06:56:13.069Z,3.10
2022-12-07T06:58:41.188Z,3.10
2022-12-07T07:01:16.738Z,3.10
2022-12-07T07:03:44.647Z,3.00
2022-12-07T07:06:12.247Z,3.00
2022-12-07T07:08:40.166Z,3.10
2022-12-07T07:11:08.428Z,3.00
2022-12-07T07:13:35.607Z,2.90
2022-12-07T07:16:02.988Z,2.90
2022-12-07T07:18:30.347Z,2.90
2022-12-07T07:20:57.947Z,2.90
2022-12-07T07:23:25.238Z,2.90
2022-12-07T07:25:52.319Z,2.90
2022-12-07T07:28:19.447Z,2.90
2022-12-07T07:30:46.617Z,3.00
2022-12-07T07:33:14.117Z,3.10
2022-12-07T07:35:41.234Z,3.10
2022-12-07T07:38:08.872Z,3.10
2022-12-07T07:40:36.407Z,3.20
2022-12-07T07:43:03.530Z,3.30
2022-12-07T07:45:30.827Z,3.30
2022-12-07T07:47:57.960Z,3.30
2022-12-07T07:50:25.027Z,3.30
2022-12-07T07:52:53.182Z,3.20
2022-12-07T07:55:20.483Z,3.30
2022-12-07T07:57:54.284Z,3.30
2022-12-07T08:00:23.069Z,3.20
2022-12-07T08:02:50.238Z,3.20
2022-12-07T08:05:17.562Z,3.10
2022-12-07T08:07:45.068Z,3.20
2022-12-07T08:10:14.083Z,3.20
2022-12-07T08:13:01.216Z,3.10
2022-12-07T08:15:30.518Z,3.10
2022-12-07T08:17:57.705Z,3.20
2022-12-07T08:20:24.861Z,3.10
2022-12-07T08:22:51.916Z,3.20
2022-12-07T08:25:19.443Z,3.20
2022-12-07T08:27:46.522Z,3.30
2022-12-07T08:30:13.981Z,3.30
2022-12-07T08:32:41.057Z,3.30
2022-12-07T08:35:09.340Z,3.40
2022-12-07T08:37:37.504Z,3.40
2022-12-07T08:40:07.095Z,3.40
2022-12-07T08:42:38.834Z,3.50
2022-12-07T08:45:11.767Z,3.60
2022-12-07T08:47:43.006Z,3.60
2022-12-07T08:50:12.385Z,3.50
2022-12-07T08:52:41.440Z,3.50
2022-12-07T08:55:12.106Z,3.50
2022-12-07T08:57:40.205Z,3.60
2022-12-07T09:00:08.625Z,3.60
2022-12-07T09:02:36.038Z,3.70
2022-12-07T09:05:03.501Z,3.70
2022-12-07T09:07:33.196Z,3.80
2022-12-07T09:10:01.055Z,3.80
2022-12-07T09:12:28.375Z,3.90
2022-12-07T09:14:55.496Z,3.60
2022-12-07T09:17:22.851Z,3.50
2022-12-07T09:19:49.963Z,3.50
2022-12-07T09:22:17.028Z,3.50
2022-12-07T09:24:45.660Z,3.50
2022-12-07T09:27:13.220Z,3.50
2022-12-07T09:29:40.286Z,3.50
2022-12-07T09:32:11.565Z,3.50
2022-12-07T09:34:39.182Z,3.60
2022-12-07T09:37:07.476Z,3.50
2022-12-07T09:39:34.676Z,3.50
2022-12-07T09:42:05.678Z,3.70
2022-12-07T09:44:33.057Z,3.80
2022-12-07T09:47:00.548Z,3.90
2022-12-07T09:49:32.303Z,3.90
2022-12-07T09:52:24.621Z,4.00
2022-12-07T09:54:52.404Z,4.00
2022-12-07T09:57:28.714Z,4.00
2022-12-07T10:00:00.929Z,4.00
2022-12-07T10:02:37.641Z,3.80
2022-12-07T10:05:13.085Z,4.00
2022-12-07T10:07:40.887Z,4.20
2022-12-07T10:10:17.425Z,4.10
2022-12-07T10:13:02.171Z,4.00
2022-12-07T10:16:25.472Z,4.10
2022-12-07T10:18:53.356Z,4.10
2022-12-07T10:21:27.846Z,4.00
2022-12-07T10:24:20.401Z,4.20
2022-12-07T10:26:54.824Z,4.40
2022-12-07T10:29:33.664Z,4.20
2022-12-07T10:32:37.155Z,4.00
2022-12-07T10:35:27.574Z,4.30
2022-12-07T10:37:56.297Z,4.40
2022-12-07T10:40:35.130Z,4.30
2022-12-07T10:43:33.816Z,4.30
2022-12-07T10:46:42.192Z,4.30
2022-12-07T10:50:10.799Z,4.60
2022-12-07T10:53:27.250Z,4.60
2022-12-07T10:56:31.723Z,4.70
2022-12-07T10:59:43.680Z,4.80
2022-12-07T11:02:49.279Z,4.80
2022-12-07T11:05:38.940Z,4.70
2022-12-07T11:08:40.415Z,4.80
2022-12-07T11:11:44.817Z,4.70
2022-12-07T11:14:57.967Z,4.90
2022-12-07T11:55:33.137Z,5.20
2022-12-07T11:58:20.747Z,5.30
2022-12-07T12:00:49.646Z,5.20
2022-12-07T12:03:33.008Z,5.20
2022-12-07T12:06:00.104Z,5.10
2022-12-07T12:15:50.927Z,5.30
2022-12-07T12:19:10.439Z,5.70
2022-12-07T12:21:38.506Z,5.60
2022-12-07T12:24:27.704Z,5.70
2022-12-07T12:27:04.079Z,5.60
2022-12-07T12:29:40.902Z,5.80
2022-12-07T12:32:21.268Z,6.00
2022-12-07T12:35:47.085Z,5.80
2022-12-07T12:38:38.135Z,6.10
2022-12-07T12:41:06.011Z,6.10
2022-12-07T12:43:53.338Z,6.70
2022-12-07T12:46:57.361Z,6.70
2022-12-07T12:49:45.513Z,7.20
2022-12-07T12:53:01.418Z,7.10
2022-12-07T12:56:03.669Z,6.60
2022-12-07T12:58:35.180Z,6.90
2022-12-07T13:01:46.981Z,7.20
2022-12-07T13:04:30.914Z,7.80
2022-12-07T13:06:58.091Z,7.30
2022-12-07T13:09:29.689Z,7.10
2022-12-07T13:12:06.388Z,7.00
2022-12-07T13:14:54.167Z,7.00
2022-12-07T13:17:57.182Z,6.50
2022-12-07T13:20:44.719Z,5.90
2022-12-07T13:23:13.313Z,6.00
2022-12-07T13:26:05.879Z,6.10
2022-12-07T13:28:43.404Z,6.00
2022-12-07T13:31:36.747Z,5.90
2022-12-07T13:34:05.728Z,6.10
2022-12-07T13:36:40.654Z,6.30
2022-12-07T13:39:23.702Z,6.20
2022-12-07T13:41:54.127Z,6.50
2022-12-07T13:44:22.381Z,6.40
2022-12-07T13:47:18.985Z,6.20
2022-12-07T13:49:55.334Z,6.20
2022-12-07T13:52:28.619Z,6.40
2022-12-07T13:55:14.549Z,6.90
2022-12-07T13:57:42.171Z,7.10
2022-12-07T14:00:21.242Z,8.30
2022-12-07T14:03:27.605Z,10.90
2022-12-07T14:06:18.581Z,13.10
2022-12-07T14:08:46.495Z,13.10
2022-12-07T14:11:21.816Z,12.50
2022-12-07T14:14:02.640Z,11.70
2022-12-07T14:16:38.128Z,11.50
2022-12-07T14:19:26.700Z,9.20
2022-12-07T14:22:20.064Z,8.80
2022-12-07T14:24:48.334Z,8.20
2022-12-07T14:27:23.663Z,9.80
2022-12-07T14:29:50.856Z,10.50
2022-12-07T14:32:36.771Z,10.00
2022-12-07T14:35:14.589Z,8.40
2022-12-07T14:37:43.331Z,8.50
2022-12-07T14:40:15.507Z,8.20
2022-12-07T14:42:44.260Z,7.40
2022-12-07T14:45:21.048Z,6.70
2022-12-07T14:53:32.977Z,5.70
2022-12-07T14:56:00.092Z,5.50
2022-12-07T14:58:27.140Z,5.80
2022-12-07T15:00:54.271Z,6.90
2022-12-07T15:03:21.395Z,7.00
2022-12-07T15:05:48.650Z,7.10
2022-12-07T15:08:15.925Z,7.10
2022-12-07T15:10:43.062Z,6.40
2022-12-07T15:13:28.593Z,6.00
2022-12-07T15:15:56.382Z,6.50
2022-12-07T15:18:24.820Z,6.80
2022-12-07T15:20:52.568Z,6.00
2022-12-07T15:23:19.796Z,5.40
2022-12-07T15:25:49.361Z,4.90
2022-12-07T15:28:16.542Z,4.60
2022-12-07T15:30:44.996Z,4.30
2022-12-07T15:33:13.514Z,4.00
2022-12-07T15:35:45.290Z,3.80
2022-12-07T15:38:13.039Z,3.70
2022-12-07T15:40:40.172Z,3.50
2022-12-07T15:43:29.392Z,3.40
2022-12-07T15:45:56.629Z,3.30
2022-12-07T15:48:28.560Z,3.10
2022-12-07T15:51:03.726Z,3.00
2022-12-07T15:53:30.798Z,2.80
2022-12-07T15:55:57.876Z,2.80
2022-12-07T15:58:24.960Z,2.70
2022-12-07T16:00:52.044Z,2.50
2022-12-07T16:03:19.243Z,2.30
2022-12-07T16:05:54.163Z,2.30
2022-12-07T16:08:21.428Z,2.40
2022-12-07T16:10:48.481Z,2.40
2022-12-07T16:13:15.657Z,2.30
2022-12-07T16:15:43.564Z,2.20
2022-12-07T16:18:10.755Z,2.20
2022-12-07T16:20:37.904Z,2.20
2022-12-07T16:23:05.103Z,2.20
2022-12-07T16:25:32.257Z,2.00
2022-12-07T16:27:59.365Z,2.00
2022-12-07T16:30:26.525Z,2.00
2022-12-07T16:32:56.753Z,1.90
2022-12-07T16:35:26.469Z,1.90
2022-12-07T16:37:53.532Z,2.00
2022-12-07T16:40:20.617Z,1.70
2022-12-07T16:42:47.707Z,1.50
2022-12-07T16:45:19.261Z,1.50
2022-12-07T16:47:48.016Z,1.50
2022-12-07T16:50:15.106Z,1.50
2022-12-07T16:52:42.219Z,1.50
2022-12-07T16:55:09.553Z,1.50
2022-12-07T16:57:36.645Z,1.50
2022-12-07T17:00:05.235Z,1.50
2022-12-07T17:02:32.564Z,1.40
2022-12-07T17:04:59.604Z,1.30
2022-12-07T17:07:26.684Z,1.40
2022-12-07T17:09:54.672Z,1.40
2022-12-07T17:12:21.864Z,1.30
2022-12-07T17:15:07.740Z,1.20
2022-12-07T17:17:35.036Z,1.20
2022-12-07T17:20:02.343Z,1.10
2022-12-07T17:22:29.653Z,1.10
2022-12-07T17:24:56.830Z,1.10
2022-12-07T17:27:24.082Z,1.20
2022-12-07T17:29:51.221Z,1.30
2022-12-07T17:32:18.330Z,1.20
2022-12-07T17:34:45.475Z,1.20
2022-12-07T17:37:12.791Z,1.20
2022-12-07T17:39:39.998Z,1.30
2022-12-07T17:42:25.575Z,1.30
2022-12-07T17:44:52.658Z,1.30
2022-12-07T17:47:21.665Z,1.20
2022-12-07T17:49:49.398Z,1.20
2022-12-07T17:52:35.357Z,1.20
2022-12-07T17:55:02.976Z,1.20
2022-12-07T17:57:30.307Z,1.00
2022-12-07T17:59:57.855Z,1.00
2022-12-07T18:02:24.944Z,0.90
2022-12-07T18:04:53.168Z,0.90
2022-12-07T18:07:20.225Z,0.90
2022-12-07T18:09:47.347Z,0.80
2022-12-07T18:12:14.439Z,0.80
2022-12-07T18:14:41.770Z,0.90
2022-12-07T18:17:09.143Z,0.90
2022-12-07T18:19:37.424Z,0.80
2022-12-07T18:22:05.272Z,0.80
2022-12-07T18:24:36.723Z,0.80
2022-12-07T18:27:05.972Z,0.80
2022-12-07T18:29:33.137Z,0.70
2022-12-07T18:32:00.527Z,0.80
2022-12-07T18:34:29.393Z,0.80
2022-12-07T18:36:56.839Z,0.70
2022-12-07T18:39:28.403Z,0.70
2022-12-07T18:41:58.901Z,0.80
2022-12-07T18:44:25.990Z,0.90
2022-12-07T18:46:53.265Z,0.90
2022-12-07T18:49:20.299Z,1.00
2022-12-07T18:51:47.450Z,1.00
2022-12-07T18:54:14.504Z,1.10
2022-12-07T18:56:41.607Z,1.20
2022-12-07T18:59:31.757Z,1.20
2022-12-07T19:01:59.400Z,1.30
2022-12-07T19:04:26.551Z,1.30
2022-12-07T19:06:53.723Z,1.30
2022-12-07T19:09:20.932Z,1.40
2022-12-07T19:11:51.578Z,1.40
2022-12-07T19:14:37.189Z,1.50
2022-12-07T19:17:07.199Z,1.50
2022-12-07T19:19:39.712Z,1.40
2022-12-07T19:22:08.124Z,1.50
2022-12-07T19:24:35.476Z,1.50
2022-12-07T19:27:04.002Z,1.60
2022-12-07T19:29:33.711Z,1.60
2022-12-07T19:32:02.883Z,1.60
2022-12-07T19:34:30.197Z,1.70
2022-12-07T19:36:57.595Z,1.60
2022-12-07T19:39:24.839Z,1.60
2022-12-07T19:41:51.960Z,1.60
2022-12-07T19:44:22.975Z,1.50
2022-12-07T19:46:51.316Z,1.40
2022-12-07T19:49:19.722Z,1.50
2022-12-07T19:51:55.553Z,1.60
2022-12-07T19:54:24.990Z,1.60
2022-12-07T19:56:53.591Z,1.50
2022-12-07T19:59:25.551Z,1.50
2022-12-07T20:01:52.880Z,1.60
2022-12-07T20:04:22.661Z,1.50
2022-12-07T20:06:52.473Z,1.60
2022-12-07T20:09:20.216Z,1.60
2022-12-07T20:12:06.197Z,1.60
2022-12-07T20:14:33.924Z,1.70
2022-12-07T20:17:01.109Z,1.60
2022-12-07T20:19:28.640Z,1.60
2022-12-07T20:21:56.090Z,1.60
2022-12-07T20:24:25.553Z,1.60
2022-12-07T20:26:54.537Z,1.60
2022-12-07T20:29:24.277Z,1.60
2022-12-07T20:31:53.490Z,1.40
2022-12-07T20:34:20.659Z,1.30
2022-12-07T20:36:47.822Z,1.30
2022-12-07T20:39:14.969Z,1.20
2022-12-07T20:42:00.535Z,1.20
2022-12-07T20:44:28.146Z,1.20
2022-12-07T20:46:55.628Z,1.20
2022-12-07T20:49:23.012Z,1.10
2022-12-07T20:51:51.095Z,1.10
2022-12-07T20:54:18.481Z,1.10
2022-12-07T20:56:45.563Z,1.10
2022-12-07T20:59:15.164Z,1.10
2022-12-07T21:01:42.811Z,1.00
2022-12-07T21:04:12.134Z,1.00
2022-12-07T21:06:39.468Z,0.90
2022-12-07T21:09:07.334Z,1.00
2022-12-07T21:11:34.424Z,0.90
2022-12-07T21:14:01.810Z,0.80
2022-12-07T21:16:30.725Z,0.80
2022-12-07T21:19:02.524Z,0.80
2022-12-07T21:21:31.209Z,0.70
2022-12-07T21:24:02.437Z,0.70
2022-12-07T21:26:34.061Z,0.70
2022-12-07T21:29:01.871Z,0.70
2022-12-07T21:31:29.083Z,0.70
2022-12-07T21:33:56.285Z,0.70
2022-12-07T21:36:26.107Z,0.60
2022-12-07T21:38:53.558Z,0.60
2022-12-07T21:41:28.703Z,0.60
2022-12-07T21:43:56.226Z,0.60
2022-12-07T21:46:31.336Z,0.50
2022-12-07T21:49:21.652Z,0.50
2022-12-07T21:51:48.957Z,0.60
2022-12-07T21:54:15.986Z,0.50
2022-12-07T21:56:45.320Z,0.50
2022-12-07T21:59:14.801Z,0.50
2022-12-07T22:01:45.606Z,0.50
2022-12-07T22:04:19.541Z,0.60
2022-12-07T22:06:47.378Z,0.50
2022-12-07T22:09:14.807Z,0.50
2022-12-07T22:11:42.173Z,0.50
2022-12-07T22:14:29.350Z,0.50
2022-12-07T22:16:57.890Z,0.50
2022-12-07T22:19:25.205Z,0.50
2022-12-07T22:21:52.339Z,0.50
2022-12-07T22:24:19.380Z,0.60
2022-12-07T22:26:46.824Z,0.50
2022-12-07T22:29:13.876Z,0.50
2022-12-07T22:31:41.348Z,0.40
2022-12-07T22:34:17.754Z,0.40
2022-12-07T22:36:45.898Z,0.40
2022-12-07T22:39:13.083Z,0.40
2022-12-07T22:41:40.718Z,0.40
2022-12-07T22:44:08.624Z,0.30
2022-12-07T22:46:36.476Z,0.30
2022-12-07T22:49:04.249Z,0.30
2022-12-07T22:51:33.551Z,0.40
2022-12-07T22:54:02.629Z,0.40
2022-12-07T22:56:32.476Z,0.30
2022-12-07T22:59:00.843Z,0.40
2022-12-07T23:01:28.282Z,0.40
2022-12-07T23:03:55.463Z,0.40
2022-12-07T23:06:25.739Z,0.40
2022-12-07T23:08:53.975Z,0.40
2022-12-07T23:11:42.431Z,0.50
2022-12-07T23:14:19.084Z,0.50
2022-12-07T23:16:46.847Z,0.50
2022-12-07T23:19:14.217Z,0.60
2022-12-07T23:21:41.634Z,0.60
2022-12-07T23:24:11.622Z,0.60
2022-12-07T23:26:38.902Z,0.60
2022-12-07T23:29:05.919Z,0.60
2022-12-07T23:31:33.047Z,0.60
2022-12-07T23:34:00.169Z,0.60
2022-12-07T23:36:28.334Z,0.70
2022-12-07T23:38:57.252Z,0.70
2022-12-07T23:41:27.588Z,0.70
2022-12-07T23:43:56.322Z,0.80
2022-12-07T23:46:26.329Z,0.80
2022-12-07T23:48:54.967Z,0.70
2022-12-07T23:51:22.551Z,0.70
2022-12-07T23:53:52.018Z,0.70
2022-12-07T23:56:24.858Z,0.70
2022-12-07T23:58:52.869Z,0.70
